sensor_id;sensor_type;location;lat;lon;timestamp;pressure;altitude;pressure_sealevel;temperature;humidity
23016;BME280;11674;52.428;13.584;2022-07-30T00:01:50;101264.97;;;22.94;39.21
23016;BME280;11674;52.428;13.584;2022-07-30T00:04:22;101260.84;;;22.91;39.40
23016;BME280;11674;52.428;13.584;2022-07-30T00:06:54;101258.72;;;22.88;39.38
23016;BME280;11674;52.428;13.584;2022-07-30T00:09:26;101260.28;;;22.86;39.65
23016;BME280;11674;52.428;13.584;2022-07-30T00:11:58;101265.00;;;22.82;39.91
23016;BME280;11674;52.428;13.584;2022-07-30T00:14:30;101258.06;;;22.79;39.86
23016;BME280;11674;52.428;13.584;2022-07-30T00:17:03;101261.25;;;22.78;39.80
23016;BME280;11674;52.428;13.584;2022-07-30T00:19:35;101265.25;;;22.77;39.70
23016;BME280;11674;52.428;13.584;2022-07-30T00:22:07;101263.63;;;22.76;39.90
23016;BME280;11674;52.428;13.584;2022-07-30T00:24:39;101257.06;;;22.72;39.77
23016;BME280;11674;52.428;13.584;2022-07-30T00:27:11;101258.22;;;22.71;40.07
23016;BME280;11674;52.428;13.584;2022-07-30T00:29:43;101257.06;;;22.72;39.84
23016;BME280;11674;52.428;13.584;2022-07-30T00:32:15;101254.22;;;22.72;40.20
23016;BME280;11674;52.428;13.584;2022-07-30T00:34:47;101258.22;;;22.71;40.13
23016;BME280;11674;52.428;13.584;2022-07-30T00:37:19;101258.59;;;22.69;40.26
23016;BME280;11674;52.428;13.584;2022-07-30T00:39:51;101254.47;;;22.67;40.39
23016;BME280;11674;52.428;13.584;2022-07-30T00:42:23;101259.31;;;22.66;40.50
23016;BME280;11674;52.428;13.584;2022-07-30T00:44:55;101249.97;;;22.66;40.44
23016;BME280;11674;52.428;13.584;2022-07-30T00:47:27;101250.81;;;22.66;40.61
23016;BME280;11674;52.428;13.584;2022-07-30T00:49:59;101255.28;;;22.67;40.62
23016;BME280;11674;52.428;13.584;2022-07-30T00:52:31;101258.47;;;22.66;40.20
23016;BME280;11674;52.428;13.584;2022-07-30T00:55:04;101252.00;;;22.65;40.65
23016;BME280;11674;52.428;13.584;2022-07-30T00:57:36;101243.88;;;22.64;40.56
23016;BME280;11674;52.428;13.584;2022-07-30T01:00:06;101253.53;;;22.63;40.32
23016;BME280;11674;52.428;13.584;2022-07-30T01:02:40;101249.88;;;22.62;40.69
23016;BME280;11674;52.428;13.584;2022-07-30T01:05:12;101253.53;;;22.63;40.56
23016;BME280;11674;52.428;13.584;2022-07-30T01:07:44;101243.41;;;22.62;40.78
23016;BME280;11674;52.428;13.584;2022-07-30T01:10:16;101248.94;;;22.58;40.41
23016;BME280;11674;52.428;13.584;2022-07-30T01:12:48;101246.50;;;22.57;40.64
23016;BME280;11674;52.428;13.584;2022-07-30T01:15:20;101250.88;;;22.54;40.69
23016;BME280;11674;52.428;13.584;2022-07-30T01:17:54;101235.44;;;22.52;40.80
23016;BME280;11674;52.428;13.584;2022-07-30T01:23:32;101244.25;;;22.50;41.07
23016;BME280;11674;52.428;13.584;2022-07-30T01:26:10;101247.44;;;22.49;40.91
23016;BME280;11674;52.428;13.584;2022-07-30T01:28:45;101240.59;;;22.50;40.96
23016;BME280;11674;52.428;13.584;2022-07-30T01:31:20;101247.44;;;22.49;40.74
23016;BME280;11674;52.428;13.584;2022-07-30T01:33:55;101244.03;;;22.43;41.08
23016;BME280;11674;52.428;13.584;2022-07-30T01:36:29;101249.09;;;22.38;41.18
23016;BME280;11674;52.428;13.584;2022-07-30T01:39:02;101240.50;;;22.34;40.95
23016;BME280;11674;52.428;13.584;2022-07-30T01:41:35;101238.38;;;22.31;41.31
23016;BME280;11674;52.428;13.584;2022-07-30T01:44:11;101234.66;;;22.27;41.34
23016;BME280;11674;52.428;13.584;2022-07-30T01:46:43;101241.34;;;22.23;41.37
23016;BME280;11674;52.428;13.584;2022-07-30T01:49:17;101232.78;;;22.19;41.35
23016;BME280;11674;52.428;13.584;2022-07-30T01:51:49;101230.44;;;22.21;41.35
23016;BME280;11674;52.428;13.584;2022-07-30T01:54:23;101226.66;;;22.17;41.45
23016;BME280;11674;52.428;13.584;2022-07-30T01:56:58;101226.56;;;22.14;41.52
23016;BME280;11674;52.428;13.584;2022-07-30T01:59:32;101234.66;;;22.15;41.50
23016;BME280;11674;52.428;13.584;2022-07-30T02:02:06;101237.03;;;22.13;41.63
23016;BME280;11674;52.428;13.584;2022-07-30T02:04:31;101239.00;;;22.13;41.34
23016;BME280;11674;52.428;13.584;2022-07-30T02:07:08;101236.47;;;22.08;41.94
23016;BME280;11674;52.428;13.584;2022-07-30T02:09:48;101238.00;;;22.05;41.95
23016;BME280;11674;52.428;13.584;2022-07-30T02:12:24;101233.88;;;22.03;41.79
23016;BME280;11674;52.428;13.584;2022-07-30T02:15:29;101239.88;;;22.01;41.68
23016;BME280;11674;52.428;13.584;2022-07-30T02:20:45;101232.09;;;21.98;41.80
23016;BME280;11674;52.428;13.584;2022-07-30T02:23:18;101238.00;;;21.93;41.71
23016;BME280;11674;52.428;13.584;2022-07-30T02:25:52;101226.59;;;21.90;42.13
23016;BME280;11674;52.428;13.584;2022-07-30T02:28:26;101232.13;;;21.86;42.30
23016;BME280;11674;52.428;13.584;2022-07-30T02:30:59;101226.38;;;21.83;42.18
23016;BME280;11674;52.428;13.584;2022-07-30T02:33:36;101240.00;;;21.81;42.47
23016;BME280;11674;52.428;13.584;2022-07-30T02:36:10;101226.13;;;21.76;42.45
23016;BME280;11674;52.428;13.584;2022-07-30T02:38:43;101228.47;;;21.74;42.56
23016;BME280;11674;52.428;13.584;2022-07-30T02:41:22;101228.03;;;21.72;42.56
23016;BME280;11674;52.428;13.584;2022-07-30T02:43:56;101228.72;;;21.69;42.59
23016;BME280;11674;52.428;13.584;2022-07-30T02:46:31;101228.56;;;21.65;42.71
23016;BME280;11674;52.428;13.584;2022-07-30T02:49:28;101228.44;;;21.62;42.37
23016;BME280;11674;52.428;13.584;2022-07-30T02:52:02;101220.69;;;21.59;42.65
23016;BME280;11674;52.428;13.584;2022-07-30T02:54:36;101216.44;;;21.53;42.66
23016;BME280;11674;52.428;13.584;2022-07-30T02:57:08;101221.63;;;21.51;42.61
23016;BME280;11674;52.428;13.584;2022-07-30T02:59:42;101209.50;;;21.50;42.93
23016;BME280;11674;52.428;13.584;2022-07-30T03:02:16;101222.44;;;21.51;42.89
23016;BME280;11674;52.428;13.584;2022-07-30T03:04:48;101215.16;;;21.50;42.76
23016;BME280;11674;52.428;13.584;2022-07-30T03:07:20;101209.84;;;21.49;43.14
23016;BME280;11674;52.428;13.584;2022-07-30T03:09:55;101209.38;;;21.47;42.79
23016;BME280;11674;52.428;13.584;2022-07-30T03:12:31;101211.38;;;21.46;43.02
23016;BME280;11674;52.428;13.584;2022-07-30T03:15:04;101222.22;;;21.44;42.86
23016;BME280;11674;52.428;13.584;2022-07-30T03:17:41;101223.72;;;21.42;43.03
23016;BME280;11674;52.428;13.584;2022-07-30T03:20:17;101222.94;;;21.41;43.53
23016;BME280;11674;52.428;13.584;2022-07-30T03:22:50;101222.09;;;21.41;43.51
23016;BME280;11674;52.428;13.584;2022-07-30T03:25:27;101230.09;;;21.39;43.37
23016;BME280;11674;52.428;13.584;2022-07-30T03:28:01;101231.63;;;21.36;43.65
23016;BME280;11674;52.428;13.584;2022-07-30T03:30:34;101232.78;;;21.35;43.43
23016;BME280;11674;52.428;13.584;2022-07-30T03:33:06;101237.97;;;21.33;43.75
23016;BME280;11674;52.428;13.584;2022-07-30T03:35:40;101234.69;;;21.31;43.62
23016;BME280;11674;52.428;13.584;2022-07-30T03:38:13;101225.72;;;21.29;43.57
23016;BME280;11674;52.428;13.584;2022-07-30T03:40:46;101229.38;;;21.30;43.47
23016;BME280;11674;52.428;13.584;2022-07-30T03:43:18;101236.53;;;21.27;43.55
23016;BME280;11674;52.428;13.584;2022-07-30T03:45:52;101235.94;;;21.22;43.92
23016;BME280;11674;52.428;13.584;2022-07-30T03:48:27;101239.13;;;21.20;43.65
23016;BME280;11674;52.428;13.584;2022-07-30T03:51:02;101237.44;;;21.19;44.12
23016;BME280;11674;52.428;13.584;2022-07-30T03:53:34;101240.28;;;21.19;44.05
23016;BME280;11674;52.428;13.584;2022-07-30T03:56:30;101247.44;;;21.17;44.12
23016;BME280;11674;52.428;13.584;2022-07-30T03:59:03;101246.63;;;21.16;43.98
23016;BME280;11674;52.428;13.584;2022-07-30T04:01:38;101248.84;;;21.11;44.11
23016;BME280;11674;52.428;13.584;2022-07-30T04:04:20;101247.53;;;21.08;44.01
23016;BME280;11674;52.428;13.584;2022-07-30T04:06:54;101248.84;;;21.11;44.02
23016;BME280;11674;52.428;13.584;2022-07-30T04:09:27;101246.97;;;21.15;44.09
23016;BME280;11674;52.428;13.584;2022-07-30T04:12:11;101253.59;;;21.19;44.01
23016;BME280;11674;52.428;13.584;2022-07-30T04:14:44;101260.03;;;21.19;44.04
23016;BME280;11674;52.428;13.584;2022-07-30T04:17:20;101257.00;;;21.24;44.34
23016;BME280;11674;52.428;13.584;2022-07-30T04:20:05;101266.75;;;21.27;44.47
23016;BME280;11674;52.428;13.584;2022-07-30T04:22:38;101268.78;;;21.26;44.00
23016;BME280;11674;52.428;13.584;2022-07-30T04:25:12;101276.91;;;21.28;44.34
23016;BME280;11674;52.428;13.584;2022-07-30T04:27:44;101280.66;;;21.32;44.26
23016;BME280;11674;52.428;13.584;2022-07-30T04:30:16;101280.44;;;21.37;43.96
23016;BME280;11674;52.428;13.584;2022-07-30T04:32:41;101282.56;;;21.40;44.02
23016;BME280;11674;52.428;13.584;2022-07-30T04:35:34;101285.03;;;21.41;43.83
23016;BME280;11674;52.428;13.584;2022-07-30T04:38:11;101293.84;;;21.40;44.17
23016;BME280;11674;52.428;13.584;2022-07-30T04:40:48;101285.63;;;21.35;44.53
23016;BME280;11674;52.428;13.584;2022-07-30T04:43:20;101276.66;;;21.33;44.08
23016;BME280;11674;52.428;13.584;2022-07-30T04:45:52;101286.31;;;21.32;44.08
23016;BME280;11674;52.428;13.584;2022-07-30T04:48:24;101287.00;;;21.29;44.57
23016;BME280;11674;52.428;13.584;2022-07-30T04:50:58;101286.06;;;21.25;44.62
23016;BME280;11674;52.428;13.584;2022-07-30T04:53:33;101282.41;;;21.24;44.82
23016;BME280;11674;52.428;13.584;2022-07-30T04:56:06;101284.41;;;21.24;44.63
23016;BME280;11674;52.428;13.584;2022-07-30T04:58:39;101286.06;;;21.25;44.66
23016;BME280;11674;52.428;13.584;2022-07-30T05:01:20;101279.94;;;21.23;44.95
23016;BME280;11674;52.428;13.584;2022-07-30T05:03:53;101282.41;;;21.24;44.47
23016;BME280;11674;52.428;13.584;2022-07-30T05:06:27;101283.00;;;21.30;44.41
23016;BME280;11674;52.428;13.584;2022-07-30T05:08:59;101287.00;;;21.29;44.37
23016;BME280;11674;52.428;13.584;2022-07-30T05:11:31;101284.53;;;21.27;44.68
23016;BME280;11674;52.428;13.584;2022-07-30T05:14:03;101271.09;;;21.24;44.66
23016;BME280;11674;52.428;13.584;2022-07-30T05:16:35;101279.56;;;21.24;44.82
23016;BME280;11674;52.428;13.584;2022-07-30T05:19:08;101279.22;;;21.26;44.73
23016;BME280;11674;52.428;13.584;2022-07-30T05:21:40;101282.88;;;21.26;44.79
23016;BME280;11674;52.428;13.584;2022-07-30T05:24:13;101278.88;;;21.27;45.22
23016;BME280;11674;52.428;13.584;2022-07-30T05:26:53;101273.59;;;21.26;45.04
23016;BME280;11674;52.428;13.584;2022-07-30T05:29:26;101275.94;;;21.24;44.78
23016;BME280;11674;52.428;13.584;2022-07-30T05:32:08;101277.47;;;21.21;45.19
23016;BME280;11674;52.428;13.584;2022-07-30T05:34:41;101280.28;;;21.21;44.89
23016;BME280;11674;52.428;13.584;2022-07-30T05:37:13;101278.75;;;21.24;45.34
23016;BME280;11674;52.428;13.584;2022-07-30T05:39:45;101279.09;;;21.22;45.36
23016;BME280;11674;52.428;13.584;2022-07-30T05:42:40;101281.59;;;21.24;44.95
23016;BME280;11674;52.428;13.584;2022-07-30T05:45:12;101283.00;;;21.30;45.18
23016;BME280;11674;52.428;13.584;2022-07-30T05:47:44;101288.91;;;21.37;44.94
23016;BME280;11674;52.428;13.584;2022-07-30T05:50:16;101291.84;;;21.40;44.88
23016;BME280;11674;52.428;13.584;2022-07-30T05:52:48;101297.25;;;21.45;45.01
23016;BME280;11674;52.428;13.584;2022-07-30T05:55:40;101288.09;;;21.48;45.13
23016;BME280;11674;52.428;13.584;2022-07-30T05:58:34;101288.84;;;21.57;45.21
23016;BME280;11674;52.428;13.584;2022-07-30T06:01:07;101292.69;;;21.65;45.05
23016;BME280;11674;52.428;13.584;2022-07-30T06:03:42;101297.94;;;21.75;45.00
23016;BME280;11674;52.428;13.584;2022-07-30T06:06:34;101297.56;;;21.88;45.08
23016;BME280;11674;52.428;13.584;2022-07-30T06:09:06;101295.34;;;21.94;45.12
23016;BME280;11674;52.428;13.584;2022-07-30T06:11:39;101298.19;;;21.94;45.11
23016;BME280;11674;52.428;13.584;2022-07-30T06:14:11;101299.81;;;21.95;44.77
23016;BME280;11674;52.428;13.584;2022-07-30T06:16:43;101291.44;;;21.98;44.79
23016;BME280;11674;52.428;13.584;2022-07-30T06:19:15;101298.41;;;22.01;44.69
23016;BME280;11674;52.428;13.584;2022-07-30T06:21:47;101295.13;;;21.99;45.01
23016;BME280;11674;52.428;13.584;2022-07-30T06:24:20;101299.13;;;21.98;44.85
23016;BME280;11674;52.428;13.584;2022-07-30T06:27:02;101304.78;;;21.98;45.09
23016;BME280;11674;52.428;13.584;2022-07-30T06:29:34;101307.22;;;21.99;44.92
23016;BME280;11674;52.428;13.584;2022-07-30T06:32:07;101303.25;;;22.00;44.96
23016;BME280;11674;52.428;13.584;2022-07-30T06:34:32;101305.34;;;22.03;44.93
23016;BME280;11674;52.428;13.584;2022-07-30T06:37:04;101303.34;;;22.04;44.79
23016;BME280;11674;52.428;13.584;2022-07-30T06:39:38;101310.53;;;22.01;44.98
23016;BME280;11674;52.428;13.584;2022-07-30T06:42:19;101304.16;;;22.04;44.88
23016;BME280;11674;52.428;13.584;2022-07-30T06:45:11;101312.53;;;22.13;44.71
23016;BME280;11674;52.428;13.584;2022-07-30T06:48:03;101315.81;;;22.27;44.69
23016;BME280;11674;52.428;13.584;2022-07-30T06:50:35;101318.06;;;22.45;44.44
23016;BME280;11674;52.428;13.584;2022-07-30T06:53:07;101312.47;;;22.61;44.43
23016;BME280;11674;52.428;13.584;2022-07-30T06:55:59;101319.66;;;22.70;44.50
23016;BME280;11674;52.428;13.584;2022-07-30T06:58:40;101323.53;;;22.78;44.32
23016;BME280;11674;52.428;13.584;2022-07-30T07:01:30;101325.97;;;22.79;44.33
23016;BME280;11674;52.428;13.584;2022-07-30T07:04:02;101317.81;;;22.90;44.08
23016;BME280;11674;52.428;13.584;2022-07-30T07:06:28;101317.94;;;23.09;43.80
23016;BME280;11674;52.428;13.584;2022-07-30T07:09:00;101329.19;;;23.17;43.63
23016;BME280;11674;52.428;13.584;2022-07-30T07:11:48;101331.38;;;23.24;43.95
23016;BME280;11674;52.428;13.584;2022-07-30T07:14:20;101332.22;;;23.24;43.86
23016;BME280;11674;52.428;13.584;2022-07-30T07:16:52;101319.78;;;23.29;43.87
23016;BME280;11674;52.428;13.584;2022-07-30T07:19:50;101324.56;;;23.40;43.71
23016;BME280;11674;52.428;13.584;2022-07-30T07:22:23;101321.66;;;23.52;43.31
23016;BME280;11674;52.428;13.584;2022-07-30T07:24:55;101314.00;;;23.53;43.41
23016;BME280;11674;52.428;13.584;2022-07-30T07:27:30;101314.34;;;23.51;43.26
23016;BME280;11674;52.428;13.584;2022-07-30T07:30:05;101317.53;;;23.50;43.19
23016;BME280;11674;52.428;13.584;2022-07-30T07:32:37;101319.13;;;23.63;43.30
23016;BME280;11674;52.428;13.584;2022-07-30T07:35:11;101317.66;;;23.84;43.18
23016;BME280;11674;52.428;13.584;2022-07-30T07:37:47;101322.09;;;23.97;42.83
23016;BME280;11674;52.428;13.584;2022-07-30T07:40:21;101319.06;;;24.06;42.81
23016;BME280;11674;52.428;13.584;2022-07-30T07:42:55;101318.19;;;24.21;42.54
23016;BME280;11674;52.428;13.584;2022-07-30T07:45:27;101322.28;;;24.39;42.50
23016;BME280;11674;52.428;13.584;2022-07-30T07:48:04;101323.88;;;24.55;42.27
23016;BME280;11674;52.428;13.584;2022-07-30T07:50:48;101325.13;;;24.73;42.14
23016;BME280;11674;52.428;13.584;2022-07-30T07:53:23;101328.75;;;24.89;41.73
23016;BME280;11674;52.428;13.584;2022-07-30T07:55:55;101325.31;;;24.99;41.79
23016;BME280;11674;52.428;13.584;2022-07-30T07:58:27;101327.44;;;25.06;41.64
23016;BME280;11674;52.428;13.584;2022-07-30T08:01:00;101336.25;;;25.01;41.68
23016;BME280;11674;52.428;13.584;2022-07-30T08:04:01;101335.00;;;24.98;41.39
23016;BME280;11674;52.428;13.584;2022-07-30T08:06:51;101329.25;;;24.95;41.63
23016;BME280;11674;52.428;13.584;2022-07-30T08:09:42;101332.47;;;24.93;41.47
23016;BME280;11674;52.428;13.584;2022-07-30T08:12:32;101330.53;;;24.97;41.42
23016;BME280;11674;52.428;13.584;2022-07-30T08:15:23;101331.25;;;25.13;41.25
23016;BME280;11674;52.428;13.584;2022-07-30T08:18:13;101327.63;;;25.32;41.24
23016;BME280;11674;52.428;13.584;2022-07-30T08:21:08;101319.88;;;25.51;40.82
23016;BME280;11674;52.428;13.584;2022-07-30T08:23:40;101324.63;;;25.66;40.85
23016;BME280;11674;52.428;13.584;2022-07-30T08:26:06;101321.84;;;25.70;41.01
23016;BME280;11674;52.428;13.584;2022-07-30T08:28:38;101324.53;;;25.82;40.52
23016;BME280;11674;52.428;13.584;2022-07-30T08:31:11;101320.59;;;25.90;40.33
23016;BME280;11674;52.428;13.584;2022-07-30T08:33:44;101325.66;;;26.00;40.12
23016;BME280;11674;52.428;13.584;2022-07-30T08:36:16;101325.81;;;26.10;39.77
23016;BME280;11674;52.428;13.584;2022-07-30T08:38:48;101317.81;;;26.16;39.91
23016;BME280;11674;52.428;13.584;2022-07-30T08:41:20;101324.97;;;26.06;39.76
23016;BME280;11674;52.428;13.584;2022-07-30T08:43:53;101321.50;;;25.94;39.86
23016;BME280;11674;52.428;13.584;2022-07-30T08:46:29;101317.56;;;26.02;39.85
23016;BME280;11674;52.428;13.584;2022-07-30T08:49:11;101324.69;;;26.15;39.65
23016;BME280;11674;52.428;13.584;2022-07-30T08:51:44;101325.66;;;26.22;39.58
23016;BME280;11674;52.428;13.584;2022-07-30T08:54:38;101321.38;;;26.35;39.17
23016;BME280;11674;52.428;13.584;2022-07-30T08:57:10;101322.63;;;26.38;39.41
23016;BME280;11674;52.428;13.584;2022-07-30T08:59:43;101325.09;;;26.39;39.19
23016;BME280;11674;52.428;13.584;2022-07-30T09:02:15;101323.13;;;26.43;39.07
23016;BME280;11674;52.428;13.584;2022-07-30T09:04:57;101317.47;;;26.47;38.87
23016;BME280;11674;52.428;13.584;2022-07-30T09:07:34;101327.50;;;26.37;38.98
23016;BME280;11674;52.428;13.584;2022-07-30T09:10:10;101327.00;;;26.32;39.03
23016;BME280;11674;52.428;13.584;2022-07-30T09:12:44;101326.56;;;26.30;38.89
23016;BME280;11674;52.428;13.584;2022-07-30T09:15:18;101322.91;;;26.29;38.65
23016;BME280;11674;52.428;13.584;2022-07-30T09:18:01;101318.78;;;26.27;38.45
23016;BME280;11674;52.428;13.584;2022-07-30T09:20:35;101320.44;;;26.28;38.99
23016;BME280;11674;52.428;13.584;2022-07-30T09:23:08;101325.03;;;26.10;38.71
23016;BME280;11674;52.428;13.584;2022-07-30T09:25:58;101315.72;;;26.13;39.07
23016;BME280;11674;52.428;13.584;2022-07-30T09:28:39;101313.69;;;26.13;38.67
23016;BME280;11674;52.428;13.584;2022-07-30T09:31:16;101316.59;;;26.17;38.74
23016;BME280;11674;52.428;13.584;2022-07-30T09:34:29;101314.22;;;26.19;38.98
23016;BME280;11674;52.428;13.584;2022-07-30T09:37:16;101308.53;;;26.19;38.95
23016;BME280;11674;52.428;13.584;2022-07-30T09:40:14;101313.81;;;26.20;38.58
23016;BME280;11674;52.428;13.584;2022-07-30T09:43:11;101316.16;;;26.15;38.87
23016;BME280;11674;52.428;13.584;2022-07-30T09:45:54;101309.53;;;26.07;38.79
23016;BME280;11674;52.428;13.584;2022-07-30T09:48:27;101308.84;;;26.14;39.08
23016;BME280;11674;52.428;13.584;2022-07-30T09:50:59;101313.09;;;26.27;39.11
23016;BME280;11674;52.428;13.584;2022-07-30T09:53:32;101314.78;;;26.31;38.78
23016;BME280;11674;52.428;13.584;2022-07-30T09:56:23;101316.88;;;26.34;38.89
23016;BME280;11674;52.428;13.584;2022-07-30T09:58:56;101311.63;;;26.36;39.07
23016;BME280;11674;52.428;13.584;2022-07-30T10:01:21;101307.63;;;26.41;38.88
23016;BME280;11674;52.428;13.584;2022-07-30T10:04:22;101304.66;;;26.34;39.05
23016;BME280;11674;52.428;13.584;2022-07-30T10:07:01;101306.66;;;26.30;38.84
23016;BME280;11674;52.428;13.584;2022-07-30T10:09:40;101309.59;;;26.37;38.90
23016;BME280;11674;52.428;13.584;2022-07-30T10:12:14;101311.88;;;26.54;38.74
23016;BME280;11674;52.428;13.584;2022-07-30T10:14:48;101307.16;;;26.61;38.60
23016;BME280;11674;52.428;13.584;2022-07-30T10:17:23;101310.38;;;26.60;38.92
23016;BME280;11674;52.428;13.584;2022-07-30T10:20:26;101309.38;;;26.75;38.75
23016;BME280;11674;52.428;13.584;2022-07-30T10:23:27;101317.44;;;26.99;38.60
23016;BME280;11674;52.428;13.584;2022-07-30T10:26:36;101321.91;;;27.29;38.53
23016;BME280;11674;52.428;13.584;2022-07-30T10:29:27;101320.31;;;27.32;38.51
23016;BME280;11674;52.428;13.584;2022-07-30T10:31:59;101326.00;;;27.32;38.77
23016;BME280;11674;52.428;13.584;2022-07-30T10:34:24;101322.47;;;27.42;38.58
23016;BME280;11674;52.428;13.584;2022-07-30T10:37:00;101313.91;;;27.42;38.11
23016;BME280;11674;52.428;13.584;2022-07-30T10:39:36;101322.81;;;27.37;38.24
23016;BME280;11674;52.428;13.584;2022-07-30T10:45:17;101315.63;;;27.53;38.08
23016;BME280;11674;52.428;13.584;2022-07-30T10:47:50;101308.47;;;27.66;37.97
23016;BME280;11674;52.428;13.584;2022-07-30T10:50:24;101314.72;;;27.79;37.74
23016;BME280;11674;52.428;13.584;2022-07-30T10:53:00;101308.59;;;27.80;37.62
23016;BME280;11674;52.428;13.584;2022-07-30T10:55:33;101311.09;;;27.85;37.85
23016;BME280;11674;52.428;13.584;2022-07-30T10:58:10;101305.06;;;27.94;37.73
23016;BME280;11674;52.428;13.584;2022-07-30T11:03:25;101305.47;;;27.92;37.79
23016;BME280;11674;52.428;13.584;2022-07-30T11:08:47;101305.00;;;27.87;37.82
23016;BME280;11674;52.428;13.584;2022-07-30T11:13:59;101305.88;;;27.91;37.91
23016;BME280;11674;52.428;13.584;2022-07-30T11:21:29;101316.13;;;28.02;37.83
23016;BME280;11674;52.428;13.584;2022-07-30T11:24:02;101308.50;;;28.13;37.54
23016;BME280;11674;52.428;13.584;2022-07-30T11:29:38;101311.47;;;28.31;36.80
23016;BME280;11674;52.428;13.584;2022-07-30T11:32:25;101314.06;;;28.43;36.68
23016;BME280;11674;52.428;13.584;2022-07-30T11:35:16;101307.34;;;28.25;36.68
23016;BME280;11674;52.428;13.584;2022-07-30T11:37:58;101314.63;;;28.15;36.78
23016;BME280;11674;52.428;13.584;2022-07-30T11:43:28;101310.38;;;28.46;36.59
23016;BME280;11674;52.428;13.584;2022-07-30T11:48:41;101307.97;;;28.48;36.17
23016;BME280;11674;52.428;13.584;2022-07-30T11:51:08;101312.09;;;28.57;36.03
23016;BME280;11674;52.428;13.584;2022-07-30T11:53:40;101312.63;;;28.77;35.80
23016;BME280;11674;52.428;13.584;2022-07-30T11:56:13;101306.53;;;28.85;35.67
23016;BME280;11674;52.428;13.584;2022-07-30T11:58:44;101310.75;;;29.02;35.12
23016;BME280;11674;52.428;13.584;2022-07-30T12:01:16;101303.41;;;29.08;35.15
23016;BME280;11674;52.428;13.584;2022-07-30T12:03:48;101306.69;;;29.17;35.33
23016;BME280;11674;52.428;13.584;2022-07-30T12:06:20;101303.50;;;29.32;35.24
23016;BME280;11674;52.428;13.584;2022-07-30T12:08:52;101301.94;;;29.59;35.20
23016;BME280;11674;52.428;13.584;2022-07-30T12:11:30;101310.56;;;29.73;34.44
23016;BME280;11674;52.428;13.584;2022-07-30T12:14:03;101305.25;;;29.75;34.52
23016;BME280;11674;52.428;13.584;2022-07-30T12:16:35;101310.13;;;29.78;34.42
23016;BME280;11674;52.428;13.584;2022-07-30T12:19:07;101307.28;;;29.89;34.00
23016;BME280;11674;52.428;13.584;2022-07-30T12:21:39;101304.41;;;29.75;33.83
23016;BME280;11674;52.428;13.584;2022-07-30T12:24:11;101311.38;;;29.91;33.68
23016;BME280;11674;52.428;13.584;2022-07-30T12:26:36;101308.09;;;29.86;33.94
23016;BME280;11674;52.428;13.584;2022-07-30T12:29:09;101299.16;;;30.19;33.52
23016;BME280;11674;52.428;13.584;2022-07-30T12:31:41;101306.88;;;30.43;33.81
23016;BME280;11674;52.428;13.584;2022-07-30T12:34:22;101301.13;;;30.57;32.66
23016;BME280;11674;52.428;13.584;2022-07-30T12:36:54;101301.56;;;30.41;33.13
23016;BME280;11674;52.428;13.584;2022-07-30T12:39:36;101312.63;;;30.32;32.91
23016;BME280;11674;52.428;13.584;2022-07-30T12:42:02;101312.63;;;30.22;32.98
23016;BME280;11674;52.428;13.584;2022-07-30T12:47:19;101296.25;;;30.29;32.56
23016;BME280;11674;52.428;13.584;2022-07-30T12:49:52;101299.94;;;30.30;32.83
23016;BME280;11674;52.428;13.584;2022-07-30T12:52:33;101297.88;;;30.48;32.56
23016;BME280;11674;52.428;13.584;2022-07-30T13:00:24;101290.00;;;31.66;31.74
23016;BME280;11674;52.428;13.584;2022-07-30T13:02:57;101282.94;;;31.81;31.12
23016;BME280;11674;52.428;13.584;2022-07-30T13:05:47;101283.41;;;31.72;30.65
23016;BME280;11674;52.428;13.584;2022-07-30T13:08:19;101292.13;;;31.55;30.52
23016;BME280;11674;52.428;13.584;2022-07-30T13:10:59;101293.31;;;31.61;30.29
23016;BME280;11674;52.428;13.584;2022-07-30T13:13:31;101293.28;;;31.64;30.79
23016;BME280;11674;52.428;13.584;2022-07-30T13:16:00;101283.00;;;31.74;30.91
23016;BME280;11674;52.428;13.584;2022-07-30T13:18:33;101291.91;;;31.86;30.19
23016;BME280;11674;52.428;13.584;2022-07-30T13:21:06;101288.34;;;31.68;30.04
23016;BME280;11674;52.428;13.584;2022-07-30T13:23:39;101295.97;;;31.34;30.05
23016;BME280;11674;52.428;13.584;2022-07-30T13:26:06;101291.44;;;31.30;30.03
23016;BME280;11674;52.428;13.584;2022-07-30T13:28:38;101291.28;;;31.61;29.87
23016;BME280;11674;52.428;13.584;2022-07-30T13:31:10;101290.75;;;31.77;29.49
23016;BME280;11674;52.428;13.584;2022-07-30T13:33:43;101284.22;;;31.73;29.61
23016;BME280;11674;52.428;13.584;2022-07-30T13:36:14;101295.00;;;31.55;29.27
23016;BME280;11674;52.428;13.584;2022-07-30T13:38:46;101284.63;;;31.75;29.44
23016;BME280;11674;52.428;13.584;2022-07-30T13:41:19;101285.72;;;31.91;29.13
23016;BME280;11674;52.428;13.584;2022-07-30T13:43:51;101293.06;;;31.99;28.96
23016;BME280;11674;52.428;13.584;2022-07-30T13:46:23;101284.59;;;31.78;29.00
23016;BME280;11674;52.428;13.584;2022-07-30T13:48:55;101294.13;;;31.61;29.30
23016;BME280;11674;52.428;13.584;2022-07-30T13:51:43;101293.44;;;31.47;29.23
23016;BME280;11674;52.428;13.584;2022-07-30T13:54:15;101291.31;;;31.58;29.31
23016;BME280;11674;52.428;13.584;2022-07-30T13:56:40;101282.19;;;31.70;29.29
23016;BME280;11674;52.428;13.584;2022-07-30T13:59:12;101288.75;;;31.67;29.21
23016;BME280;11674;52.428;13.584;2022-07-30T14:01:44;101292.06;;;31.62;29.17
23016;BME280;11674;52.428;13.584;2022-07-30T14:04:09;101284.06;;;31.32;29.51